Current | Forecast
Updated: 6:00 PM JST on March 29, 2017
Observed at Wakkanai Airport, Japan
Temperature 34°F
Windchill 25°F
Humidity 75%
Dew Point 27°F
Wind North at 12 mph
Pressure 30.04 in (Rising)
Conditions Mostly Cloudy
Visibility 6.2 miles
UV 0 out of 16
Clouds Mostly Cloudy (BKN) : 2000 ft
Yesterday's Maximum 37°F
Yesterday's Minimum 32°F approx.
Yesterday's Heating Degree Days 30 approx.
Sunrise5:19 AM JST
Sunset5:57 PM JST
Moon Rise6:07 AM JST
Moon Set7:16 PM JST
Moon PhaseMoon Phase
Waxing Crescent
Raw METARMETAR RJCW 290900Z 36010KT 9999 BKN020 01/M03 Q1017


Monday
. High: 62° F.
Tuesday
. High: 62° F.
Wednesday
. High: 57° F.
Thursday
. High: 57° F.
Friday
. High: 59° F.
Saturday
. High: 59° F.
Sunday
. High: 53° F.
Monday
. High: 57° F.

Units: English | Metric

Find the Weather for any City, State or Zipcode, or Country:

U.S. State List | Severe Weather | Tropical Storms | Ski Conditions
United States | Canada | Central America | South America | Asia | Europe | Australia | Africa | Islands

Weather Underground

© Copyright 2017
The Weather Company, LLC